sensor_id;sensor_type;location;lat;lon;timestamp;temperature;humidity
78184;DHT22;67442;44.570;18.610;2023-08-01T00:00:53;24.70;54.60
78184;DHT22;67442;44.570;18.610;2023-08-01T00:03:25;24.70;54.60
78184;DHT22;67442;44.570;18.610;2023-08-01T00:05:56;24.70;54.60
78184;DHT22;67442;44.570;18.610;2023-08-01T00:08:27;24.70;54.60
78184;DHT22;67442;44.570;18.610;2023-08-01T00:10:54;24.70;54.50
78184;DHT22;67442;44.570;18.610;2023-08-01T00:13:22;24.70;54.50
78184;DHT22;67442;44.570;18.610;2023-08-01T00:15:49;24.70;54.50
78184;DHT22;67442;44.570;18.610;2023-08-01T00:18:16;24.70;54.50
78184;DHT22;67442;44.570;18.610;2023-08-01T00:20:43;24.70;54.40
78184;DHT22;67442;44.570;18.610;2023-08-01T00:23:11;24.70;54.40
78184;DHT22;67442;44.570;18.610;2023-08-01T00:25:38;24.70;54.50
78184;DHT22;67442;44.570;18.610;2023-08-01T00:28:05;24.70;54.40
78184;DHT22;67442;44.570;18.610;2023-08-01T00:30:32;24.70;54.40
78184;DHT22;67442;44.570;18.610;2023-08-01T00:33:03;24.60;54.40
78184;DHT22;67442;44.570;18.610;2023-08-01T00:35:30;24.60;54.40
78184;DHT22;67442;44.570;18.610;2023-08-01T00:37:57;24.70;54.40
78184;DHT22;67442;44.570;18.610;2023-08-01T00:40:30;24.70;54.40
78184;DHT22;67442;44.570;18.610;2023-08-01T00:42:57;24.60;54.40
78184;DHT22;67442;44.570;18.610;2023-08-01T00:45:45;24.60;54.30
78184;DHT22;67442;44.570;18.610;2023-08-01T00:48:12;24.60;54.30
78184;DHT22;67442;44.570;18.610;2023-08-01T00:50:39;24.60;54.30
78184;DHT22;67442;44.570;18.610;2023-08-01T00:53:06;24.60;54.30
78184;DHT22;67442;44.570;18.610;2023-08-01T00:55:33;24.60;54.30
78184;DHT22;67442;44.570;18.610;2023-08-01T00:58:00;24.60;54.20
78184;DHT22;67442;44.570;18.610;2023-08-01T01:00:27;24.60;54.20
78184;DHT22;67442;44.570;18.610;2023-08-01T01:02:55;24.60;54.20
78184;DHT22;67442;44.570;18.610;2023-08-01T01:05:23;24.60;54.20
78184;DHT22;67442;44.570;18.610;2023-08-01T01:07:51;24.60;54.20
78184;DHT22;67442;44.570;18.610;2023-08-01T01:10:23;24.60;54.20
78184;DHT22;67442;44.570;18.610;2023-08-01T01:12:50;24.60;54.20
78184;DHT22;67442;44.570;18.610;2023-08-01T01:15:17;24.60;54.10
78184;DHT22;67442;44.570;18.610;2023-08-01T01:17:45;24.60;54.10
78184;DHT22;67442;44.570;18.610;2023-08-01T01:20:12;24.60;54.10
78184;DHT22;67442;44.570;18.610;2023-08-01T01:22:40;24.60;54.10
78184;DHT22;67442;44.570;18.610;2023-08-01T01:25:08;24.60;54.10
78184;DHT22;67442;44.570;18.610;2023-08-01T01:27:37;24.60;54.10
78184;DHT22;67442;44.570;18.610;2023-08-01T01:30:07;24.50;54.00
78184;DHT22;67442;44.570;18.610;2023-08-01T01:32:34;24.60;54.10
78184;DHT22;67442;44.570;18.610;2023-08-01T01:35:07;24.60;54.00
78184;DHT22;67442;44.570;18.610;2023-08-01T01:37:34;24.60;54.00
78184;DHT22;67442;44.570;18.610;2023-08-01T01:40:07;24.50;53.90
78184;DHT22;67442;44.570;18.610;2023-08-01T01:42:34;24.50;53.90
78184;DHT22;67442;44.570;18.610;2023-08-01T01:45:00;24.50;53.90
78184;DHT22;67442;44.570;18.610;2023-08-01T01:47:28;24.50;53.80
78184;DHT22;67442;44.570;18.610;2023-08-01T01:49:55;24.50;53.90
78184;DHT22;67442;44.570;18.610;2023-08-01T01:52:22;24.50;53.80
78184;DHT22;67442;44.570;18.610;2023-08-01T01:54:49;24.50;53.80
78184;DHT22;67442;44.570;18.610;2023-08-01T01:57:16;24.50;53.80
78184;DHT22;67442;44.570;18.610;2023-08-01T01:59:44;24.50;53.90
78184;DHT22;67442;44.570;18.610;2023-08-01T02:02:15;24.50;53.80
78184;DHT22;67442;44.570;18.610;2023-08-01T02:04:42;24.50;53.80
78184;DHT22;67442;44.570;18.610;2023-08-01T02:07:09;24.60;53.80
78184;DHT22;67442;44.570;18.610;2023-08-01T02:09:39;24.50;53.70
78184;DHT22;67442;44.570;18.610;2023-08-01T02:12:08;24.50;53.70
78184;DHT22;67442;44.570;18.610;2023-08-01T02:14:36;24.50;53.80
78184;DHT22;67442;44.570;18.610;2023-08-01T02:17:03;24.50;53.70
78184;DHT22;67442;44.570;18.610;2023-08-01T02:19:30;24.50;53.70
78184;DHT22;67442;44.570;18.610;2023-08-01T02:21:58;24.50;53.70
78184;DHT22;67442;44.570;18.610;2023-08-01T02:24:25;24.50;53.70
78184;DHT22;67442;44.570;18.610;2023-08-01T02:26:52;24.50;53.70
78184;DHT22;67442;44.570;18.610;2023-08-01T02:29:19;24.50;53.70
78184;DHT22;67442;44.570;18.610;2023-08-01T02:31:47;24.50;53.70
78184;DHT22;67442;44.570;18.610;2023-08-01T02:34:14;24.50;53.70
78184;DHT22;67442;44.570;18.610;2023-08-01T02:36:41;24.50;53.70
78184;DHT22;67442;44.570;18.610;2023-08-01T02:39:09;24.50;53.70
78184;DHT22;67442;44.570;18.610;2023-08-01T02:41:36;24.50;53.70
78184;DHT22;67442;44.570;18.610;2023-08-01T02:44:04;24.50;53.70
78184;DHT22;67442;44.570;18.610;2023-08-01T02:46:31;24.50;53.60
78184;DHT22;67442;44.570;18.610;2023-08-01T02:48:59;24.50;53.70
78184;DHT22;67442;44.570;18.610;2023-08-01T02:51:26;24.50;53.70
78184;DHT22;67442;44.570;18.610;2023-08-01T02:53:53;24.50;53.70
78184;DHT22;67442;44.570;18.610;2023-08-01T02:56:21;24.50;53.70
78184;DHT22;67442;44.570;18.610;2023-08-01T02:58:48;24.50;53.60
78184;DHT22;67442;44.570;18.610;2023-08-01T03:01:14;24.50;53.60
78184;DHT22;67442;44.570;18.610;2023-08-01T03:03:42;24.50;53.70
78184;DHT22;67442;44.570;18.610;2023-08-01T03:06:14;24.50;53.60
78184;DHT22;67442;44.570;18.610;2023-08-01T03:08:42;24.40;53.60
78184;DHT22;67442;44.570;18.610;2023-08-01T03:11:09;24.40;53.60
78184;DHT22;67442;44.570;18.610;2023-08-01T03:13:36;24.50;53.60
78184;DHT22;67442;44.570;18.610;2023-08-01T03:16:04;24.40;53.60
78184;DHT22;67442;44.570;18.610;2023-08-01T03:18:35;24.40;53.60
78184;DHT22;67442;44.570;18.610;2023-08-01T03:21:02;24.50;53.70
78184;DHT22;67442;44.570;18.610;2023-08-01T03:23:30;24.40;53.60
78184;DHT22;67442;44.570;18.610;2023-08-01T03:25:57;24.40;53.60
78184;DHT22;67442;44.570;18.610;2023-08-01T03:28:26;24.40;53.50
78184;DHT22;67442;44.570;18.610;2023-08-01T03:30:56;24.40;53.50
78184;DHT22;67442;44.570;18.610;2023-08-01T03:33:23;24.40;53.40
78184;DHT22;67442;44.570;18.610;2023-08-01T03:35:50;24.40;53.30
78184;DHT22;67442;44.570;18.610;2023-08-01T03:38:18;24.40;53.30
78184;DHT22;67442;44.570;18.610;2023-08-01T03:40:45;24.40;53.20
78184;DHT22;67442;44.570;18.610;2023-08-01T03:43:13;24.40;53.20
78184;DHT22;67442;44.570;18.610;2023-08-01T03:45:40;24.40;53.10
78184;DHT22;67442;44.570;18.610;2023-08-01T03:48:07;24.40;53.10
78184;DHT22;67442;44.570;18.610;2023-08-01T03:50:34;24.40;53.00
78184;DHT22;67442;44.570;18.610;2023-08-01T03:53:02;24.40;53.00
78184;DHT22;67442;44.570;18.610;2023-08-01T03:55:29;24.40;53.00
78184;DHT22;67442;44.570;18.610;2023-08-01T03:57:56;24.40;52.90
78184;DHT22;67442;44.570;18.610;2023-08-01T04:00:23;24.40;52.90
78184;DHT22;67442;44.570;18.610;2023-08-01T04:02:51;24.40;52.90
78184;DHT22;67442;44.570;18.610;2023-08-01T04:05:18;24.30;52.80
78184;DHT22;67442;44.570;18.610;2023-08-01T04:07:45;24.40;52.90
78184;DHT22;67442;44.570;18.610;2023-08-01T04:10:12;24.30;52.80
78184;DHT22;67442;44.570;18.610;2023-08-01T04:12:39;24.30;53.50
78184;DHT22;67442;44.570;18.610;2023-08-01T04:15:09;24.30;53.70
78184;DHT22;67442;44.570;18.610;2023-08-01T04:17:37;24.40;54.00
78184;DHT22;67442;44.570;18.610;2023-08-01T04:20:06;24.40;54.20
78184;DHT22;67442;44.570;18.610;2023-08-01T04:22:32;24.40;54.30
78184;DHT22;67442;44.570;18.610;2023-08-01T04:25:01;24.40;54.40
78184;DHT22;67442;44.570;18.610;2023-08-01T04:27:28;24.50;54.40
78184;DHT22;67442;44.570;18.610;2023-08-01T04:29:56;24.50;54.40
78184;DHT22;67442;44.570;18.610;2023-08-01T04:32:24;24.50;54.50
78184;DHT22;67442;44.570;18.610;2023-08-01T04:34:51;24.50;54.50
78184;DHT22;67442;44.570;18.610;2023-08-01T04:37:21;24.50;54.50
78184;DHT22;67442;44.570;18.610;2023-08-01T04:39:49;24.60;54.70
78184;DHT22;67442;44.570;18.610;2023-08-01T04:42:16;24.60;54.50
78184;DHT22;67442;44.570;18.610;2023-08-01T04:44:47;24.60;54.40
78184;DHT22;67442;44.570;18.610;2023-08-01T04:47:15;24.60;54.40
78184;DHT22;67442;44.570;18.610;2023-08-01T04:49:41;24.60;54.50
78184;DHT22;67442;44.570;18.610;2023-08-01T04:52:08;24.60;54.60
78184;DHT22;67442;44.570;18.610;2023-08-01T04:54:35;24.60;54.80
78184;DHT22;67442;44.570;18.610;2023-08-01T04:57:02;24.60;54.90
78184;DHT22;67442;44.570;18.610;2023-08-01T04:59:30;24.50;55.00
78184;DHT22;67442;44.570;18.610;2023-08-01T05:01:58;24.50;55.10
78184;DHT22;67442;44.570;18.610;2023-08-01T05:04:25;24.50;55.30
78184;DHT22;67442;44.570;18.610;2023-08-01T05:06:57;24.50;55.40
78184;DHT22;67442;44.570;18.610;2023-08-01T05:09:28;24.50;55.50
78184;DHT22;67442;44.570;18.610;2023-08-01T05:11:59;24.50;55.60
78184;DHT22;67442;44.570;18.610;2023-08-01T05:14:26;24.50;55.70
78184;DHT22;67442;44.570;18.610;2023-08-01T05:16:53;24.50;55.80
78184;DHT22;67442;44.570;18.610;2023-08-01T05:19:21;24.50;55.90
78184;DHT22;67442;44.570;18.610;2023-08-01T05:21:48;24.50;56.70
78184;DHT22;67442;44.570;18.610;2023-08-01T05:24:15;24.50;56.30
78184;DHT22;67442;44.570;18.610;2023-08-01T05:26:47;24.50;56.40
78184;DHT22;67442;44.570;18.610;2023-08-01T05:29:14;24.60;56.60
78184;DHT22;67442;44.570;18.610;2023-08-01T05:31:41;24.60;56.60
78184;DHT22;67442;44.570;18.610;2023-08-01T05:34:09;24.60;56.70
78184;DHT22;67442;44.570;18.610;2023-08-01T05:36:36;24.60;56.80
78184;DHT22;67442;44.570;18.610;2023-08-01T05:39:03;24.60;57.00
78184;DHT22;67442;44.570;18.610;2023-08-01T05:41:30;24.60;57.20
78184;DHT22;67442;44.570;18.610;2023-08-01T05:43:58;24.60;57.30
78184;DHT22;67442;44.570;18.610;2023-08-01T05:46:24;24.60;57.30
78184;DHT22;67442;44.570;18.610;2023-08-01T05:48:51;24.60;57.40
78184;DHT22;67442;44.570;18.610;2023-08-01T05:51:18;24.60;57.50
78184;DHT22;67442;44.570;18.610;2023-08-01T05:53:46;24.60;57.60
78184;DHT22;67442;44.570;18.610;2023-08-01T05:56:14;24.60;57.70
78184;DHT22;67442;44.570;18.610;2023-08-01T05:58:41;24.60;57.90
78184;DHT22;67442;44.570;18.610;2023-08-01T06:01:10;24.60;58.00
78184;DHT22;67442;44.570;18.610;2023-08-01T06:03:38;24.60;58.20
78184;DHT22;67442;44.570;18.610;2023-08-01T06:06:06;24.60;58.30
78184;DHT22;67442;44.570;18.610;2023-08-01T06:08:33;24.60;58.40
78184;DHT22;67442;44.570;18.610;2023-08-01T06:11:00;24.70;58.50
78184;DHT22;67442;44.570;18.610;2023-08-01T06:13:28;24.70;58.70
78184;DHT22;67442;44.570;18.610;2023-08-01T06:15:55;24.70;58.80
78184;DHT22;67442;44.570;18.610;2023-08-01T06:18:22;24.70;59.60
78184;DHT22;67442;44.570;18.610;2023-08-01T06:20:49;24.70;59.10
78184;DHT22;67442;44.570;18.610;2023-08-01T06:23:17;24.70;59.10
78184;DHT22;67442;44.570;18.610;2023-08-01T06:25:48;24.70;59.20
78184;DHT22;67442;44.570;18.610;2023-08-01T06:28:15;24.70;59.30
78184;DHT22;67442;44.570;18.610;2023-08-01T06:30:43;24.70;59.30
78184;DHT22;67442;44.570;18.610;2023-08-01T06:33:10;24.70;59.50
78184;DHT22;67442;44.570;18.610;2023-08-01T06:35:37;24.70;59.50
78184;DHT22;67442;44.570;18.610;2023-08-01T06:38:04;24.80;59.70
78184;DHT22;67442;44.570;18.610;2023-08-01T06:40:32;24.80;59.70
78184;DHT22;67442;44.570;18.610;2023-08-01T06:42:59;24.80;59.80
78184;DHT22;67442;44.570;18.610;2023-08-01T06:45:26;24.80;59.80
78184;DHT22;67442;44.570;18.610;2023-08-01T06:47:53;24.80;59.80
78184;DHT22;67442;44.570;18.610;2023-08-01T06:50:21;24.80;59.70
78184;DHT22;67442;44.570;18.610;2023-08-01T06:52:48;24.80;59.30
78184;DHT22;67442;44.570;18.610;2023-08-01T06:55:16;24.80;58.80
78184;DHT22;67442;44.570;18.610;2023-08-01T06:57:47;24.80;58.70
78184;DHT22;67442;44.570;18.610;2023-08-01T07:00:18;24.80;58.40
78184;DHT22;67442;44.570;18.610;2023-08-01T07:02:46;24.90;58.20
78184;DHT22;67442;44.570;18.610;2023-08-01T07:05:13;24.90;58.10
78184;DHT22;67442;44.570;18.610;2023-08-01T07:07:40;24.90;58.20
78184;DHT22;67442;44.570;18.610;2023-08-01T07:10:09;24.90;57.90
78184;DHT22;67442;44.570;18.610;2023-08-01T07:12:37;24.90;57.80
78184;DHT22;67442;44.570;18.610;2023-08-01T07:15:11;24.90;57.80
78184;DHT22;67442;44.570;18.610;2023-08-01T07:17:39;24.90;57.90
78184;DHT22;67442;44.570;18.610;2023-08-01T07:20:07;24.90;57.90
78184;DHT22;67442;44.570;18.610;2023-08-01T07:22:35;24.90;58.00
78184;DHT22;67442;44.570;18.610;2023-08-01T07:25:02;24.90;58.10
78184;DHT22;67442;44.570;18.610;2023-08-01T07:27:29;24.90;58.10
78184;DHT22;67442;44.570;18.610;2023-08-01T07:29:57;25.00;58.30
78184;DHT22;67442;44.570;18.610;2023-08-01T07:32:23;25.00;58.30
78184;DHT22;67442;44.570;18.610;2023-08-01T07:34:50;25.00;59.00
78184;DHT22;67442;44.570;18.610;2023-08-01T07:37:18;25.00;58.30
78184;DHT22;67442;44.570;18.610;2023-08-01T07:39:45;25.00;58.40
78184;DHT22;67442;44.570;18.610;2023-08-01T07:42:12;25.10;58.50
78184;DHT22;67442;44.570;18.610;2023-08-01T07:44:39;25.10;58.50
78184;DHT22;67442;44.570;18.610;2023-08-01T07:47:07;25.10;58.40
78184;DHT22;67442;44.570;18.610;2023-08-01T07:49:33;25.00;58.30
78184;DHT22;67442;44.570;18.610;2023-08-01T07:52:06;25.00;58.30
78184;DHT22;67442;44.570;18.610;2023-08-01T07:54:33;25.10;58.30
78184;DHT22;67442;44.570;18.610;2023-08-01T07:57:00;25.10;58.20
78184;DHT22;67442;44.570;18.610;2023-08-01T07:59:28;25.10;58.20
78184;DHT22;67442;44.570;18.610;2023-08-01T08:01:55;25.10;58.10
78184;DHT22;67442;44.570;18.610;2023-08-01T08:04:22;25.10;58.10
78184;DHT22;67442;44.570;18.610;2023-08-01T08:06:50;25.10;58.10
78184;DHT22;67442;44.570;18.610;2023-08-01T08:09:18;25.10;58.20
78184;DHT22;67442;44.570;18.610;2023-08-01T08:11:46;25.10;58.10
78184;DHT22;67442;44.570;18.610;2023-08-01T08:14:13;25.10;58.10
78184;DHT22;67442;44.570;18.610;2023-08-01T08:16:41;25.10;58.10
78184;DHT22;67442;44.570;18.610;2023-08-01T08:19:12;25.10;58.10
78184;DHT22;67442;44.570;18.610;2023-08-01T08:21:39;25.10;58.00
78184;DHT22;67442;44.570;18.610;2023-08-01T08:24:07;25.10;58.10
78184;DHT22;67442;44.570;18.610;2023-08-01T08:26:34;25.10;58.00
78184;DHT22;67442;44.570;18.610;2023-08-01T08:29:03;25.20;58.00
78184;DHT22;67442;44.570;18.610;2023-08-01T08:31:31;25.20;58.00
78184;DHT22;67442;44.570;18.610;2023-08-01T08:33:59;25.20;58.00
78184;DHT22;67442;44.570;18.610;2023-08-01T08:36:26;25.10;58.00
78184;DHT22;67442;44.570;18.610;2023-08-01T08:38:53;25.20;58.70
78184;DHT22;67442;44.570;18.610;2023-08-01T08:41:22;25.20;58.10
78184;DHT22;67442;44.570;18.610;2023-08-01T08:43:57;25.10;58.00
78184;DHT22;67442;44.570;18.610;2023-08-01T08:46:29;25.20;58.10
78184;DHT22;67442;44.570;18.610;2023-08-01T08:48:58;25.20;58.10
78184;DHT22;67442;44.570;18.610;2023-08-01T08:51:27;25.20;58.20
78184;DHT22;67442;44.570;18.610;2023-08-01T08:53:56;25.20;58.10
78184;DHT22;67442;44.570;18.610;2023-08-01T08:56:23;25.20;58.20
78184;DHT22;67442;44.570;18.610;2023-08-01T08:58:51;25.20;58.10
78184;DHT22;67442;44.570;18.610;2023-08-01T09:01:18;25.20;58.10
78184;DHT22;67442;44.570;18.610;2023-08-01T09:03:45;25.20;58.10
78184;DHT22;67442;44.570;18.610;2023-08-01T09:06:15;25.20;58.10
78184;DHT22;67442;44.570;18.610;2023-08-01T09:09:13;25.20;58.10
78184;DHT22;67442;44.570;18.610;2023-08-01T09:11:51;25.20;58.10
78184;DHT22;67442;44.570;18.610;2023-08-01T09:14:21;25.20;58.10
78184;DHT22;67442;44.570;18.610;2023-08-01T09:16:48;25.30;58.10
78184;DHT22;67442;44.570;18.610;2023-08-01T09:19:20;25.20;58.00
78184;DHT22;67442;44.570;18.610;2023-08-01T09:21:47;25.20;57.90
78184;DHT22;67442;44.570;18.610;2023-08-01T09:24:18;25.20;57.80
78184;DHT22;67442;44.570;18.610;2023-08-01T09:26:46;25.30;57.90
78184;DHT22;67442;44.570;18.610;2023-08-01T09:29:17;25.30;57.80
78184;DHT22;67442;44.570;18.610;2023-08-01T09:31:44;25.30;57.80
78184;DHT22;67442;44.570;18.610;2023-08-01T09:34:24;25.20;57.70
78184;DHT22;67442;44.570;18.610;2023-08-01T09:36:58;25.30;57.60
78184;DHT22;67442;44.570;18.610;2023-08-01T09:39:26;25.30;57.60
78184;DHT22;67442;44.570;18.610;2023-08-01T09:42:01;25.30;57.60
78184;DHT22;67442;44.570;18.610;2023-08-01T09:44:29;25.30;57.50
78184;DHT22;67442;44.570;18.610;2023-08-01T09:47:03;25.30;57.50
78184;DHT22;67442;44.570;18.610;2023-08-01T09:49:31;25.30;57.40
78184;DHT22;67442;44.570;18.610;2023-08-01T09:52:01;25.30;57.40
78184;DHT22;67442;44.570;18.610;2023-08-01T09:54:29;25.30;57.40
78184;DHT22;67442;44.570;18.610;2023-08-01T09:57:01;25.30;58.00
78184;DHT22;67442;44.570;18.610;2023-08-01T09:59:30;25.30;57.30
78184;DHT22;67442;44.570;18.610;2023-08-01T10:01:58;25.30;57.30
78184;DHT22;67442;44.570;18.610;2023-08-01T10:04:30;25.30;57.10
78184;DHT22;67442;44.570;18.610;2023-08-01T10:06:59;25.30;57.10
78184;DHT22;67442;44.570;18.610;2023-08-01T10:09:26;25.30;57.10
78184;DHT22;67442;44.570;18.610;2023-08-01T10:11:56;25.30;57.00
78184;DHT22;67442;44.570;18.610;2023-08-01T10:14:28;25.30;57.60
78184;DHT22;67442;44.570;18.610;2023-08-01T10:16:54;25.30;56.90
78184;DHT22;67442;44.570;18.610;2023-08-01T10:19:22;25.30;56.90
78184;DHT22;67442;44.570;18.610;2023-08-01T10:21:50;25.40;56.70
78184;DHT22;67442;44.570;18.610;2023-08-01T10:24:19;25.30;56.60
78184;DHT22;67442;44.570;18.610;2023-08-01T10:26:47;25.30;56.60
78184;DHT22;67442;44.570;18.610;2023-08-01T10:29:14;25.30;56.60
78184;DHT22;67442;44.570;18.610;2023-08-01T10:31:51;25.40;56.50
78184;DHT22;67442;44.570;18.610;2023-08-01T10:34:19;25.40;56.50
78184;DHT22;67442;44.570;18.610;2023-08-01T10:36:55;25.30;56.50
78184;DHT22;67442;44.570;18.610;2023-08-01T10:39:23;25.30;56.50
78184;DHT22;67442;44.570;18.610;2023-08-01T10:42:06;25.30;56.50
78184;DHT22;67442;44.570;18.610;2023-08-01T10:44:44;25.40;56.30
78184;DHT22;67442;44.570;18.610;2023-08-01T10:47:25;25.40;56.20
78184;DHT22;67442;44.570;18.610;2023-08-01T10:49:53;25.40;56.00
78184;DHT22;67442;44.570;18.610;2023-08-01T10:52:26;25.40;55.90
78184;DHT22;67442;44.570;18.610;2023-08-01T10:55:03;25.40;55.90
78184;DHT22;67442;44.570;18.610;2023-08-01T10:57:34;25.40;55.90
78184;DHT22;67442;44.570;18.610;2023-08-01T11:00:02;25.40;55.90
78184;DHT22;67442;44.570;18.610;2023-08-01T11:02:37;25.40;55.90
78184;DHT22;67442;44.570;18.610;2023-08-01T11:05:06;25.40;55.90
78184;DHT22;67442;44.570;18.610;2023-08-01T11:07:33;25.40;55.80
78184;DHT22;67442;44.570;18.610;2023-08-01T11:12:34;25.40;55.80
78184;DHT22;67442;44.570;18.610;2023-08-01T11:15:11;25.40;55.90
78184;DHT22;67442;44.570;18.610;2023-08-01T11:17:42;25.40;55.80
78184;DHT22;67442;44.570;18.610;2023-08-01T11:20:10;25.40;55.80
78184;DHT22;67442;44.570;18.610;2023-08-01T11:22:38;25.40;55.90
78184;DHT22;67442;44.570;18.610;2023-08-01T11:25:06;25.40;55.80
78184;DHT22;67442;44.570;18.610;2023-08-01T11:27:34;25.40;55.60
78184;DHT22;67442;44.570;18.610;2023-08-01T11:30:02;25.40;55.60
78184;DHT22;67442;44.570;18.610;2023-08-01T11:32:35;25.40;55.50
78184;DHT22;67442;44.570;18.610;2023-08-01T11:35:03;25.40;55.50
78184;DHT22;67442;44.570;18.610;2023-08-01T11:37:30;25.40;55.40
78184;DHT22;67442;44.570;18.610;2023-08-01T11:39:58;25.40;55.40
78184;DHT22;67442;44.570;18.610;2023-08-01T11:42:25;25.40;55.40
78184;DHT22;67442;44.570;18.610;2023-08-01T11:45:29;25.40;55.40
78184;DHT22;67442;44.570;18.610;2023-08-01T11:48:00;25.40;55.50
78184;DHT22;67442;44.570;18.610;2023-08-01T11:50:27;25.40;55.40
78184;DHT22;67442;44.570;18.610;2023-08-01T11:52:55;25.40;55.50
78184;DHT22;67442;44.570;18.610;2023-08-01T11:55:23;25.40;55.50
78184;DHT22;67442;44.570;18.610;2023-08-01T11:57:59;25.40;55.50
78184;DHT22;67442;44.570;18.610;2023-08-01T12:00:28;25.40;55.50
78184;DHT22;67442;44.570;18.610;2023-08-01T12:03:08;25.40;55.50
78184;DHT22;67442;44.570;18.610;2023-08-01T12:05:42;25.40;55.60
78184;DHT22;67442;44.570;18.610;2023-08-01T12:08:31;25.40;55.60
78184;DHT22;67442;44.570;18.610;2023-08-01T12:11:26;25.40;55.60
78184;DHT22;67442;44.570;18.610;2023-08-01T12:14:15;25.40;55.60
78184;DHT22;67442;44.570;18.610;2023-08-01T12:16:45;25.40;55.60
78184;DHT22;67442;44.570;18.610;2023-08-01T12:19:19;25.40;55.60
78184;DHT22;67442;44.570;18.610;2023-08-01T12:21:48;25.40;55.40
78184;DHT22;67442;44.570;18.610;2023-08-01T12:24:16;25.40;55.40
78184;DHT22;67442;44.570;18.610;2023-08-01T12:26:44;25.40;55.40
78184;DHT22;67442;44.570;18.610;2023-08-01T12:29:10;25.40;55.50
78184;DHT22;67442;44.570;18.610;2023-08-01T12:31:41;25.40;55.60
78184;DHT22;67442;44.570;18.610;2023-08-01T12:34:08;25.50;55.70
78184;DHT22;67442;44.570;18.610;2023-08-01T12:36:35;25.50;55.80
78184;DHT22;67442;44.570;18.610;2023-08-01T12:39:03;25.40;55.80
78184;DHT22;67442;44.570;18.610;2023-08-01T12:41:31;25.40;55.90
78184;DHT22;67442;44.570;18.610;2023-08-01T12:43:58;25.40;55.90
78184;DHT22;67442;44.570;18.610;2023-08-01T12:46:26;25.40;56.00
78184;DHT22;67442;44.570;18.610;2023-08-01T12:48:53;25.40;56.10
78184;DHT22;67442;44.570;18.610;2023-08-01T12:51:20;25.50;56.20
78184;DHT22;67442;44.570;18.610;2023-08-01T12:53:47;25.50;56.90
78184;DHT22;67442;44.570;18.610;2023-08-01T12:56:14;25.50;56.20
78184;DHT22;67442;44.570;18.610;2023-08-01T12:58:43;25.50;56.20
78184;DHT22;67442;44.570;18.610;2023-08-01T13:01:11;25.50;56.20
78184;DHT22;67442;44.570;18.610;2023-08-01T13:03:42;25.50;56.20
78184;DHT22;67442;44.570;18.610;2023-08-01T13:06:12;25.50;56.20
78184;DHT22;67442;44.570;18.610;2023-08-01T13:08:58;25.50;56.20
78184;DHT22;67442;44.570;18.610;2023-08-01T13:11:25;25.50;56.30
78184;DHT22;67442;44.570;18.610;2023-08-01T13:13:53;25.50;56.40
78184;DHT22;67442;44.570;18.610;2023-08-01T13:16:20;25.50;56.70
78184;DHT22;67442;44.570;18.610;2023-08-01T13:18:47;25.50;56.90
78184;DHT22;67442;44.570;18.610;2023-08-01T13:21:15;25.50;57.00
78184;DHT22;67442;44.570;18.610;2023-08-01T13:23:42;25.50;57.20
78184;DHT22;67442;44.570;18.610;2023-08-01T13:26:10;25.60;57.40
78184;DHT22;67442;44.570;18.610;2023-08-01T13:28:37;25.60;57.70
78184;DHT22;67442;44.570;18.610;2023-08-01T13:31:04;25.60;57.80
78184;DHT22;67442;44.570;18.610;2023-08-01T13:33:31;25.60;58.00
78184;DHT22;67442;44.570;18.610;2023-08-01T13:35:59;25.60;58.10
78184;DHT22;67442;44.570;18.610;2023-08-01T13:38:30;25.60;58.30
78184;DHT22;67442;44.570;18.610;2023-08-01T13:40:59;25.60;58.40
78184;DHT22;67442;44.570;18.610;2023-08-01T13:43:27;25.60;59.30
78184;DHT22;67442;44.570;18.610;2023-08-01T13:45:53;25.60;58.70
78184;DHT22;67442;44.570;18.610;2023-08-01T13:48:21;25.70;58.90
78184;DHT22;67442;44.570;18.610;2023-08-01T13:50:48;25.70;58.80
78184;DHT22;67442;44.570;18.610;2023-08-01T13:53:15;25.60;58.70
78184;DHT22;67442;44.570;18.610;2023-08-01T13:55:43;25.70;58.70
78184;DHT22;67442;44.570;18.610;2023-08-01T13:58:15;25.70;58.60
78184;DHT22;67442;44.570;18.610;2023-08-01T14:00:42;25.70;58.50
78184;DHT22;67442;44.570;18.610;2023-08-01T14:03:13;25.70;59.10
78184;DHT22;67442;44.570;18.610;2023-08-01T14:05:41;25.70;58.50
78184;DHT22;67442;44.570;18.610;2023-08-01T14:08:07;25.70;58.50
78184;DHT22;67442;44.570;18.610;2023-08-01T14:10:34;25.70;58.50
78184;DHT22;67442;44.570;18.610;2023-08-01T14:13:01;25.70;58.50
78184;DHT22;67442;44.570;18.610;2023-08-01T14:15:29;25.70;58.40
78184;DHT22;67442;44.570;18.610;2023-08-01T14:17:56;25.70;58.30
78184;DHT22;67442;44.570;18.610;2023-08-01T14:20:23;25.70;58.20
78184;DHT22;67442;44.570;18.610;2023-08-01T14:22:51;25.70;58.10
78184;DHT22;67442;44.570;18.610;2023-08-01T14:25:18;25.70;58.10
78184;DHT22;67442;44.570;18.610;2023-08-01T14:27:45;25.70;58.00
78184;DHT22;67442;44.570;18.610;2023-08-01T14:30:13;25.70;58.00
78184;DHT22;67442;44.570;18.610;2023-08-01T14:32:39;25.70;58.00
78184;DHT22;67442;44.570;18.610;2023-08-01T14:35:08;25.70;57.90
78184;DHT22;67442;44.570;18.610;2023-08-01T14:37:37;25.70;57.80
78184;DHT22;67442;44.570;18.610;2023-08-01T14:40:06;25.70;57.80
78184;DHT22;67442;44.570;18.610;2023-08-01T14:42:38;25.70;58.00
78184;DHT22;67442;44.570;18.610;2023-08-01T14:45:10;25.70;57.90
78184;DHT22;67442;44.570;18.610;2023-08-01T14:47:41;25.70;57.30
78184;DHT22;67442;44.570;18.610;2023-08-01T14:50:11;25.70;57.00
78184;DHT22;67442;44.570;18.610;2023-08-01T14:52:38;25.60;56.80
78184;DHT22;67442;44.570;18.610;2023-08-01T14:55:05;25.60;56.70
78184;DHT22;67442;44.570;18.610;2023-08-01T14:57:32;25.60;56.60
78184;DHT22;67442;44.570;18.610;2023-08-01T14:59:59;25.50;56.40
78184;DHT22;67442;44.570;18.610;2023-08-01T15:02:26;25.50;56.30
78184;DHT22;67442;44.570;18.610;2023-08-01T15:04:55;25.50;56.20
78184;DHT22;67442;44.570;18.610;2023-08-01T15:07:23;25.50;56.20
78184;DHT22;67442;44.570;18.610;2023-08-01T15:09:51;25.50;56.20
78184;DHT22;67442;44.570;18.610;2023-08-01T15:12:19;25.40;56.00
78184;DHT22;67442;44.570;18.610;2023-08-01T15:14:53;25.40;56.10
78184;DHT22;67442;44.570;18.610;2023-08-01T15:17:20;25.40;56.10
78184;DHT22;67442;44.570;18.610;2023-08-01T15:19:47;25.40;56.10
78184;DHT22;67442;44.570;18.610;2023-08-01T15:22:19;25.40;56.00
78184;DHT22;67442;44.570;18.610;2023-08-01T15:24:46;25.40;56.10
78184;DHT22;67442;44.570;18.610;2023-08-01T15:27:13;25.30;56.10